sensor_id;sensor_type;location;lat;lon;timestamp;P1;durP1;ratioP1;P2;durP2;ratioP2
59978;SDS011;45839;44.882;20.650;2023-02-01T00:00:53;23.90;;;11.00;;
59978;SDS011;45839;44.882;20.650;2023-02-01T00:03:19;19.85;;;10.35;;
59978;SDS011;45839;44.882;20.650;2023-02-01T00:05:54;16.38;;;8.95;;
59978;SDS011;45839;44.882;20.650;2023-02-01T00:08:20;16.35;;;9.10;;
59978;SDS011;45839;44.882;20.650;2023-02-01T00:10:46;14.55;;;8.65;;
59978;SDS011;45839;44.882;20.650;2023-02-01T00:13:12;15.35;;;8.15;;
59978;SDS011;45839;44.882;20.650;2023-02-01T00:15:38;17.95;;;9.23;;
59978;SDS011;45839;44.882;20.650;2023-02-01T00:18:04;15.55;;;9.18;;
59978;SDS011;45839;44.882;20.650;2023-02-01T00:20:30;18.80;;;9.55;;
59978;SDS011;45839;44.882;20.650;2023-02-01T00:22:56;18.95;;;10.40;;
59978;SDS011;45839;44.882;20.650;2023-02-01T00:25:22;18.40;;;9.70;;
59978;SDS011;45839;44.882;20.650;2023-02-01T00:27:49;16.38;;;9.02;;
59978;SDS011;45839;44.882;20.650;2023-02-01T00:30:16;17.70;;;9.90;;
59978;SDS011;45839;44.882;20.650;2023-02-01T00:32:42;18.13;;;10.07;;
59978;SDS011;45839;44.882;20.650;2023-02-01T00:35:08;20.25;;;10.43;;
59978;SDS011;45839;44.882;20.650;2023-02-01T00:37:34;19.35;;;10.52;;
59978;SDS011;45839;44.882;20.650;2023-02-01T00:40:00;17.95;;;9.90;;
59978;SDS011;45839;44.882;20.650;2023-02-01T00:42:26;17.10;;;9.75;;
59978;SDS011;45839;44.882;20.650;2023-02-01T00:44:52;17.35;;;9.50;;
59978;SDS011;45839;44.882;20.650;2023-02-01T00:47:18;17.15;;;10.15;;
59978;SDS011;45839;44.882;20.650;2023-02-01T00:49:45;17.92;;;9.43;;
59978;SDS011;45839;44.882;20.650;2023-02-01T00:52:11;16.02;;;9.38;;
59978;SDS011;45839;44.882;20.650;2023-02-01T00:54:37;17.92;;;9.73;;
59978;SDS011;45839;44.882;20.650;2023-02-01T00:57:03;19.48;;;10.30;;
59978;SDS011;45839;44.882;20.650;2023-02-01T00:59:29;16.48;;;9.80;;
59978;SDS011;45839;44.882;20.650;2023-02-01T01:01:55;17.00;;;9.95;;
59978;SDS011;45839;44.882;20.650;2023-02-01T01:04:21;18.25;;;10.07;;
59978;SDS011;45839;44.882;20.650;2023-02-01T01:06:47;17.05;;;9.95;;
59978;SDS011;45839;44.882;20.650;2023-02-01T01:09:13;21.27;;;11.07;;
59978;SDS011;45839;44.882;20.650;2023-02-01T01:11:39;20.35;;;11.38;;
59978;SDS011;45839;44.882;20.650;2023-02-01T01:14:06;23.02;;;11.73;;
59978;SDS011;45839;44.882;20.650;2023-02-01T01:16:32;20.10;;;10.68;;
59978;SDS011;45839;44.882;20.650;2023-02-01T01:18:59;18.13;;;10.05;;
59978;SDS011;45839;44.882;20.650;2023-02-01T01:21:25;16.48;;;9.43;;
59978;SDS011;45839;44.882;20.650;2023-02-01T01:23:51;16.17;;;9.20;;
59978;SDS011;45839;44.882;20.650;2023-02-01T01:26:19;16.77;;;9.98;;
59978;SDS011;45839;44.882;20.650;2023-02-01T01:28:45;17.25;;;9.77;;
59978;SDS011;45839;44.882;20.650;2023-02-01T01:31:12;17.77;;;10.40;;
59978;SDS011;45839;44.882;20.650;2023-02-01T01:33:38;19.10;;;9.98;;
59978;SDS011;45839;44.882;20.650;2023-02-01T01:36:05;15.40;;;10.02;;
59978;SDS011;45839;44.882;20.650;2023-02-01T01:38:32;17.98;;;10.43;;
59978;SDS011;45839;44.882;20.650;2023-02-01T01:40:58;14.88;;;10.18;;
59978;SDS011;45839;44.882;20.650;2023-02-01T01:43:24;17.40;;;10.20;;
59978;SDS011;45839;44.882;20.650;2023-02-01T01:45:50;17.08;;;10.57;;
59978;SDS011;45839;44.882;20.650;2023-02-01T01:48:26;16.30;;;10.10;;
59978;SDS011;45839;44.882;20.650;2023-02-01T01:50:55;18.25;;;11.07;;
59978;SDS011;45839;44.882;20.650;2023-02-01T01:53:24;18.65;;;11.05;;
59978;SDS011;45839;44.882;20.650;2023-02-01T01:55:51;18.50;;;11.07;;
59978;SDS011;45839;44.882;20.650;2023-02-01T01:58:18;16.80;;;10.88;;
59978;SDS011;45839;44.882;20.650;2023-02-01T02:00:45;18.02;;;11.15;;
59978;SDS011;45839;44.882;20.650;2023-02-01T02:03:13;18.58;;;11.32;;
59978;SDS011;45839;44.882;20.650;2023-02-01T02:05:40;17.67;;;11.05;;
59978;SDS011;45839;44.882;20.650;2023-02-01T02:08:06;17.70;;;10.75;;
59978;SDS011;45839;44.882;20.650;2023-02-01T02:10:32;17.40;;;10.95;;
59978;SDS011;45839;44.882;20.650;2023-02-01T02:13:17;19.92;;;10.25;;
59978;SDS011;45839;44.882;20.650;2023-02-01T02:15:59;18.63;;;10.60;;
59978;SDS011;45839;44.882;20.650;2023-02-01T02:18:53;16.85;;;10.30;;
59978;SDS011;45839;44.882;20.650;2023-02-01T02:26:32;18.02;;;10.50;;
59978;SDS011;45839;44.882;20.650;2023-02-01T02:34:33;20.27;;;12.05;;
59978;SDS011;45839;44.882;20.650;2023-02-01T02:37:16;18.42;;;10.95;;
59978;SDS011;45839;44.882;20.650;2023-02-01T02:48:10;19.40;;;11.00;;
59978;SDS011;45839;44.882;20.650;2023-02-01T02:50:38;18.05;;;11.70;;
59978;SDS011;45839;44.882;20.650;2023-02-01T02:53:32;17.98;;;11.32;;
59978;SDS011;45839;44.882;20.650;2023-02-01T02:56:18;17.02;;;11.20;;
59978;SDS011;45839;44.882;20.650;2023-02-01T02:59:04;19.00;;;11.63;;
59978;SDS011;45839;44.882;20.650;2023-02-01T03:01:50;18.13;;;11.15;;
59978;SDS011;45839;44.882;20.650;2023-02-01T03:04:35;19.73;;;12.23;;
59978;SDS011;45839;44.882;20.650;2023-02-01T03:07:12;16.77;;;10.30;;
59978;SDS011;45839;44.882;20.650;2023-02-01T03:09:38;17.05;;;11.10;;
59978;SDS011;45839;44.882;20.650;2023-02-01T03:12:07;20.10;;;11.98;;
59978;SDS011;45839;44.882;20.650;2023-02-01T03:14:56;17.70;;;10.80;;
59978;SDS011;45839;44.882;20.650;2023-02-01T03:17:25;18.40;;;11.20;;
59978;SDS011;45839;44.882;20.650;2023-02-01T03:19:53;18.60;;;11.07;;
59978;SDS011;45839;44.882;20.650;2023-02-01T03:22:22;17.45;;;10.70;;
59978;SDS011;45839;44.882;20.650;2023-02-01T03:24:55;18.20;;;10.48;;
59978;SDS011;45839;44.882;20.650;2023-02-01T03:27:30;18.77;;;11.30;;
59978;SDS011;45839;44.882;20.650;2023-02-01T03:30:02;17.95;;;11.35;;
59978;SDS011;45839;44.882;20.650;2023-02-01T03:32:30;20.67;;;12.75;;
59978;SDS011;45839;44.882;20.650;2023-02-01T03:35:17;19.60;;;12.23;;
59978;SDS011;45839;44.882;20.650;2023-02-01T03:37:44;18.30;;;11.35;;
59978;SDS011;45839;44.882;20.650;2023-02-01T03:40:10;20.85;;;11.80;;
59978;SDS011;45839;44.882;20.650;2023-02-01T03:42:38;18.65;;;11.38;;
59978;SDS011;45839;44.882;20.650;2023-02-01T03:47:35;18.02;;;10.25;;
59978;SDS011;45839;44.882;20.650;2023-02-01T03:50:07;17.75;;;11.52;;
59978;SDS011;45839;44.882;20.650;2023-02-01T03:53:20;19.17;;;12.20;;
59978;SDS011;45839;44.882;20.650;2023-02-01T03:55:21;21.38;;;12.25;;
59978;SDS011;45839;44.882;20.650;2023-02-01T03:57:58;17.60;;;11.23;;
59978;SDS011;45839;44.882;20.650;2023-02-01T04:00:26;19.10;;;12.32;;
59978;SDS011;45839;44.882;20.650;2023-02-01T04:02:53;20.73;;;12.77;;
59978;SDS011;45839;44.882;20.650;2023-02-01T04:05:19;24.30;;;14.75;;
59978;SDS011;45839;44.882;20.650;2023-02-01T04:07:45;24.95;;;14.13;;
59978;SDS011;45839;44.882;20.650;2023-02-01T04:10:11;25.17;;;14.60;;
59978;SDS011;45839;44.882;20.650;2023-02-01T04:12:37;23.50;;;13.35;;
59978;SDS011;45839;44.882;20.650;2023-02-01T04:15:04;18.35;;;11.65;;
59978;SDS011;45839;44.882;20.650;2023-02-01T04:17:30;21.20;;;11.85;;
59978;SDS011;45839;44.882;20.650;2023-02-01T04:19:56;17.85;;;10.68;;
59978;SDS011;45839;44.882;20.650;2023-02-01T04:22:22;18.67;;;10.88;;
59978;SDS011;45839;44.882;20.650;2023-02-01T04:24:48;18.48;;;11.00;;
59978;SDS011;45839;44.882;20.650;2023-02-01T04:27:14;17.58;;;10.65;;
59978;SDS011;45839;44.882;20.650;2023-02-01T04:29:40;16.33;;;10.60;;
59978;SDS011;45839;44.882;20.650;2023-02-01T04:32:06;16.88;;;10.00;;
59978;SDS011;45839;44.882;20.650;2023-02-01T04:34:32;18.50;;;11.18;;
59978;SDS011;45839;44.882;20.650;2023-02-01T04:36:58;17.02;;;10.95;;
59978;SDS011;45839;44.882;20.650;2023-02-01T04:39:25;19.20;;;11.25;;
59978;SDS011;45839;44.882;20.650;2023-02-01T04:41:51;21.05;;;13.05;;
59978;SDS011;45839;44.882;20.650;2023-02-01T04:44:17;20.70;;;13.18;;
59978;SDS011;45839;44.882;20.650;2023-02-01T04:46:44;24.63;;;15.18;;
59978;SDS011;45839;44.882;20.650;2023-02-01T04:49:11;19.40;;;13.40;;
59978;SDS011;45839;44.882;20.650;2023-02-01T04:51:37;21.75;;;12.98;;
59978;SDS011;45839;44.882;20.650;2023-02-01T04:54:03;16.98;;;10.68;;
59978;SDS011;45839;44.882;20.650;2023-02-01T04:56:30;19.83;;;11.98;;
59978;SDS011;45839;44.882;20.650;2023-02-01T04:58:56;16.77;;;11.20;;
59978;SDS011;45839;44.882;20.650;2023-02-01T05:01:23;15.48;;;10.10;;
59978;SDS011;45839;44.882;20.650;2023-02-01T05:03:52;16.63;;;9.27;;
59978;SDS011;45839;44.882;20.650;2023-02-01T05:06:18;16.38;;;10.00;;
59978;SDS011;45839;44.882;20.650;2023-02-01T05:08:44;16.30;;;9.75;;
59978;SDS011;45839;44.882;20.650;2023-02-01T05:11:10;17.92;;;10.90;;
59978;SDS011;45839;44.882;20.650;2023-02-01T05:13:56;15.60;;;9.73;;
59978;SDS011;45839;44.882;20.650;2023-02-01T05:16:22;16.10;;;10.27;;
59978;SDS011;45839;44.882;20.650;2023-02-01T05:18:48;17.20;;;9.25;;
59978;SDS011;45839;44.882;20.650;2023-02-01T05:21:14;16.77;;;9.43;;
59978;SDS011;45839;44.882;20.650;2023-02-01T05:23:40;15.32;;;9.70;;
59978;SDS011;45839;44.882;20.650;2023-02-01T05:26:24;15.63;;;7.85;;
59978;SDS011;45839;44.882;20.650;2023-02-01T05:28:51;14.75;;;8.50;;
59978;SDS011;45839;44.882;20.650;2023-02-01T05:31:17;14.50;;;7.80;;
59978;SDS011;45839;44.882;20.650;2023-02-01T05:33:43;13.23;;;7.28;;
59978;SDS011;45839;44.882;20.650;2023-02-01T05:36:09;13.63;;;7.40;;
59978;SDS011;45839;44.882;20.650;2023-02-01T05:38:35;12.60;;;6.63;;
59978;SDS011;45839;44.882;20.650;2023-02-01T05:41:01;10.93;;;6.28;;
59978;SDS011;45839;44.882;20.650;2023-02-01T05:43:27;11.18;;;6.32;;
59978;SDS011;45839;44.882;20.650;2023-02-01T05:45:53;10.93;;;6.13;;
59978;SDS011;45839;44.882;20.650;2023-02-01T05:48:19;9.98;;;5.65;;
59978;SDS011;45839;44.882;20.650;2023-02-01T05:50:45;12.35;;;6.38;;
59978;SDS011;45839;44.882;20.650;2023-02-01T05:53:11;11.98;;;6.00;;
59978;SDS011;45839;44.882;20.650;2023-02-01T05:55:37;10.60;;;5.63;;
59978;SDS011;45839;44.882;20.650;2023-02-01T05:58:04;10.95;;;5.80;;
59978;SDS011;45839;44.882;20.650;2023-02-01T06:00:30;10.18;;;5.00;;
59978;SDS011;45839;44.882;20.650;2023-02-01T06:02:57;10.18;;;5.55;;
59978;SDS011;45839;44.882;20.650;2023-02-01T06:05:23;13.68;;;5.60;;
59978;SDS011;45839;44.882;20.650;2023-02-01T06:07:49;12.65;;;5.95;;
59978;SDS011;45839;44.882;20.650;2023-02-01T06:10:16;11.30;;;5.32;;
59978;SDS011;45839;44.882;20.650;2023-02-01T06:12:42;10.00;;;5.30;;
59978;SDS011;45839;44.882;20.650;2023-02-01T06:15:09;12.43;;;5.20;;
59978;SDS011;45839;44.882;20.650;2023-02-01T06:17:35;11.27;;;5.47;;
59978;SDS011;45839;44.882;20.650;2023-02-01T06:20:02;9.27;;;4.70;;
59978;SDS011;45839;44.882;20.650;2023-02-01T06:22:28;8.50;;;4.30;;
59978;SDS011;45839;44.882;20.650;2023-02-01T06:24:54;9.52;;;4.72;;
59978;SDS011;45839;44.882;20.650;2023-02-01T06:27:20;9.50;;;4.38;;
59978;SDS011;45839;44.882;20.650;2023-02-01T06:29:46;9.38;;;4.30;;
59978;SDS011;45839;44.882;20.650;2023-02-01T06:32:12;9.75;;;4.10;;
59978;SDS011;45839;44.882;20.650;2023-02-01T06:34:38;9.60;;;4.45;;
59978;SDS011;45839;44.882;20.650;2023-02-01T06:37:04;8.80;;;4.13;;
59978;SDS011;45839;44.882;20.650;2023-02-01T06:39:30;10.48;;;4.43;;
59978;SDS011;45839;44.882;20.650;2023-02-01T06:41:56;9.98;;;4.60;;
59978;SDS011;45839;44.882;20.650;2023-02-01T06:44:22;8.52;;;4.60;;
59978;SDS011;45839;44.882;20.650;2023-02-01T06:46:48;11.43;;;4.78;;
59978;SDS011;45839;44.882;20.650;2023-02-01T06:49:14;11.05;;;5.00;;
59978;SDS011;45839;44.882;20.650;2023-02-01T06:51:41;12.93;;;5.18;;
59978;SDS011;45839;44.882;20.650;2023-02-01T06:54:07;10.88;;;5.25;;
59978;SDS011;45839;44.882;20.650;2023-02-01T06:56:33;11.07;;;5.22;;
59978;SDS011;45839;44.882;20.650;2023-02-01T06:58:59;9.90;;;5.10;;
59978;SDS011;45839;44.882;20.650;2023-02-01T07:01:25;12.65;;;6.30;;
59978;SDS011;45839;44.882;20.650;2023-02-01T07:03:51;10.25;;;5.43;;
59978;SDS011;45839;44.882;20.650;2023-02-01T07:06:17;11.40;;;5.75;;
59978;SDS011;45839;44.882;20.650;2023-02-01T07:08:44;11.57;;;6.18;;
59978;SDS011;45839;44.882;20.650;2023-02-01T07:11:11;12.63;;;6.68;;
59978;SDS011;45839;44.882;20.650;2023-02-01T07:13:37;13.38;;;6.75;;
59978;SDS011;45839;44.882;20.650;2023-02-01T07:16:04;13.00;;;6.80;;
59978;SDS011;45839;44.882;20.650;2023-02-01T07:18:30;13.73;;;7.00;;
59978;SDS011;45839;44.882;20.650;2023-02-01T07:20:57;13.45;;;6.95;;
59978;SDS011;45839;44.882;20.650;2023-02-01T07:23:23;14.77;;;7.43;;
59978;SDS011;45839;44.882;20.650;2023-02-01T07:25:52;14.32;;;7.13;;
59978;SDS011;45839;44.882;20.650;2023-02-01T07:28:19;14.25;;;6.82;;
59978;SDS011;45839;44.882;20.650;2023-02-01T07:30:45;14.48;;;7.45;;
59978;SDS011;45839;44.882;20.650;2023-02-01T07:33:16;13.32;;;7.63;;
59978;SDS011;45839;44.882;20.650;2023-02-01T07:35:42;14.07;;;7.80;;
59978;SDS011;45839;44.882;20.650;2023-02-01T07:38:08;15.13;;;8.32;;
59978;SDS011;45839;44.882;20.650;2023-02-01T07:40:34;14.98;;;7.60;;
59978;SDS011;45839;44.882;20.650;2023-02-01T07:43:00;13.82;;;7.85;;
59978;SDS011;45839;44.882;20.650;2023-02-01T07:45:26;13.02;;;7.35;;
59978;SDS011;45839;44.882;20.650;2023-02-01T07:47:52;13.27;;;8.05;;
59978;SDS011;45839;44.882;20.650;2023-02-01T07:50:18;15.60;;;8.10;;
59978;SDS011;45839;44.882;20.650;2023-02-01T07:52:44;15.45;;;8.80;;
59978;SDS011;45839;44.882;20.650;2023-02-01T07:55:10;16.58;;;8.57;;
59978;SDS011;45839;44.882;20.650;2023-02-01T07:57:36;16.40;;;7.57;;
59978;SDS011;45839;44.882;20.650;2023-02-01T08:00:03;15.55;;;9.10;;
59978;SDS011;45839;44.882;20.650;2023-02-01T08:02:47;18.25;;;9.80;;
59978;SDS011;45839;44.882;20.650;2023-02-01T08:05:14;20.77;;;11.77;;
59978;SDS011;45839;44.882;20.650;2023-02-01T08:07:40;17.38;;;8.75;;
59978;SDS011;45839;44.882;20.650;2023-02-01T08:10:06;15.00;;;8.82;;
59978;SDS011;45839;44.882;20.650;2023-02-01T08:12:35;14.13;;;8.45;;
59978;SDS011;45839;44.882;20.650;2023-02-01T08:15:02;14.55;;;8.10;;
59978;SDS011;45839;44.882;20.650;2023-02-01T08:17:28;16.23;;;8.60;;
59978;SDS011;45839;44.882;20.650;2023-02-01T08:19:55;16.08;;;8.93;;
59978;SDS011;45839;44.882;20.650;2023-02-01T08:22:21;18.42;;;9.48;;
59978;SDS011;45839;44.882;20.650;2023-02-01T08:24:47;16.48;;;9.43;;
59978;SDS011;45839;44.882;20.650;2023-02-01T08:27:14;15.43;;;9.15;;
59978;SDS011;45839;44.882;20.650;2023-02-01T08:29:40;21.35;;;11.70;;
59978;SDS011;45839;44.882;20.650;2023-02-01T08:32:06;17.27;;;10.30;;
59978;SDS011;45839;44.882;20.650;2023-02-01T08:34:32;17.50;;;9.48;;
59978;SDS011;45839;44.882;20.650;2023-02-01T08:36:58;18.45;;;9.45;;
59978;SDS011;45839;44.882;20.650;2023-02-01T08:39:25;15.85;;;9.18;;
59978;SDS011;45839;44.882;20.650;2023-02-01T08:41:51;14.95;;;8.32;;
59978;SDS011;45839;44.882;20.650;2023-02-01T08:44:36;16.02;;;9.18;;
59978;SDS011;45839;44.882;20.650;2023-02-01T08:47:03;19.30;;;10.23;;
59978;SDS011;45839;44.882;20.650;2023-02-01T08:49:29;17.67;;;9.77;;
59978;SDS011;45839;44.882;20.650;2023-02-01T08:51:55;16.20;;;9.85;;
59978;SDS011;45839;44.882;20.650;2023-02-01T08:54:21;17.80;;;9.93;;
59978;SDS011;45839;44.882;20.650;2023-02-01T08:56:47;20.08;;;11.25;;
59978;SDS011;45839;44.882;20.650;2023-02-01T08:59:13;17.38;;;10.77;;
59978;SDS011;45839;44.882;20.650;2023-02-01T09:01:39;18.17;;;10.50;;
59978;SDS011;45839;44.882;20.650;2023-02-01T09:04:05;19.75;;;10.32;;
59978;SDS011;45839;44.882;20.650;2023-02-01T09:06:31;17.50;;;10.65;;
59978;SDS011;45839;44.882;20.650;2023-02-01T09:08:57;21.08;;;12.15;;
59978;SDS011;45839;44.882;20.650;2023-02-01T09:11:23;18.98;;;11.50;;
59978;SDS011;45839;44.882;20.650;2023-02-01T09:13:50;19.48;;;10.90;;
59978;SDS011;45839;44.882;20.650;2023-02-01T09:16:16;18.58;;;10.57;;
59978;SDS011;45839;44.882;20.650;2023-02-01T09:18:42;18.50;;;9.93;;
59978;SDS011;45839;44.882;20.650;2023-02-01T09:21:09;16.80;;;10.10;;
59978;SDS011;45839;44.882;20.650;2023-02-01T09:23:35;15.93;;;9.77;;
59978;SDS011;45839;44.882;20.650;2023-02-01T09:26:02;17.38;;;9.75;;
59978;SDS011;45839;44.882;20.650;2023-02-01T09:28:28;18.27;;;10.00;;
59978;SDS011;45839;44.882;20.650;2023-02-01T09:30:55;16.05;;;9.52;;
59978;SDS011;45839;44.882;20.650;2023-02-01T09:33:22;16.05;;;10.00;;
59978;SDS011;45839;44.882;20.650;2023-02-01T09:35:49;15.75;;;9.38;;
59978;SDS011;45839;44.882;20.650;2023-02-01T09:38:15;18.52;;;9.82;;
59978;SDS011;45839;44.882;20.650;2023-02-01T09:40:41;19.98;;;9.10;;
59978;SDS011;45839;44.882;20.650;2023-02-01T09:48:39;13.55;;;8.20;;
59978;SDS011;45839;44.882;20.650;2023-02-01T09:51:06;14.13;;;8.00;;
59978;SDS011;45839;44.882;20.650;2023-02-01T09:53:38;18.15;;;8.93;;
59978;SDS011;45839;44.882;20.650;2023-02-01T09:56:10;19.83;;;11.93;;
59978;SDS011;45839;44.882;20.650;2023-02-01T09:58:40;17.80;;;9.88;;
59978;SDS011;45839;44.882;20.650;2023-02-01T10:01:10;19.73;;;10.20;;
59978;SDS011;45839;44.882;20.650;2023-02-01T10:03:40;17.38;;;9.95;;
59978;SDS011;45839;44.882;20.650;2023-02-01T10:06:22;19.27;;;9.15;;
59978;SDS011;45839;44.882;20.650;2023-02-01T10:11:32;16.63;;;8.95;;
59978;SDS011;45839;44.882;20.650;2023-02-01T10:22:23;15.85;;;8.60;;
59978;SDS011;45839;44.882;20.650;2023-02-01T10:24:57;18.42;;;9.55;;
59978;SDS011;45839;44.882;20.650;2023-02-01T10:27:28;14.93;;;8.27;;
59978;SDS011;45839;44.882;20.650;2023-02-01T10:29:58;16.67;;;8.68;;
59978;SDS011;45839;44.882;20.650;2023-02-01T10:32:31;16.67;;;7.95;;
59978;SDS011;45839;44.882;20.650;2023-02-01T10:35:00;15.25;;;8.70;;
59978;SDS011;45839;44.882;20.650;2023-02-01T10:37:27;13.77;;;8.13;;
59978;SDS011;45839;44.882;20.650;2023-02-01T10:39:55;14.35;;;8.40;;
59978;SDS011;45839;44.882;20.650;2023-02-01T10:42:23;17.10;;;9.75;;
59978;SDS011;45839;44.882;20.650;2023-02-01T10:44:50;20.42;;;9.70;;
59978;SDS011;45839;44.882;20.650;2023-02-01T10:47:17;16.33;;;10.13;;
59978;SDS011;45839;44.882;20.650;2023-02-01T10:49:47;19.38;;;9.98;;
59978;SDS011;45839;44.882;20.650;2023-02-01T10:52:31;15.27;;;9.32;;
59978;SDS011;45839;44.882;20.650;2023-02-01T10:55:25;15.90;;;8.77;;
59978;SDS011;45839;44.882;20.650;2023-02-01T10:57:52;16.85;;;10.13;;
59978;SDS011;45839;44.882;20.650;2023-02-01T11:00:21;18.30;;;9.90;;
59978;SDS011;45839;44.882;20.650;2023-02-01T11:02:47;15.15;;;8.88;;
59978;SDS011;45839;44.882;20.650;2023-02-01T11:05:15;13.65;;;7.72;;
59978;SDS011;45839;44.882;20.650;2023-02-01T11:07:50;16.05;;;8.27;;
59978;SDS011;45839;44.882;20.650;2023-02-01T11:10:39;17.80;;;8.57;;
59978;SDS011;45839;44.882;20.650;2023-02-01T11:13:15;14.77;;;8.27;;
59978;SDS011;45839;44.882;20.650;2023-02-01T11:18:14;13.85;;;7.68;;
59978;SDS011;45839;44.882;20.650;2023-02-01T11:20:40;12.02;;;7.40;;
59978;SDS011;45839;44.882;20.650;2023-02-01T11:23:13;12.82;;;7.75;;
59978;SDS011;45839;44.882;20.650;2023-02-01T11:25:47;14.07;;;7.37;;
59978;SDS011;45839;44.882;20.650;2023-02-01T11:28:14;13.07;;;6.82;;
59978;SDS011;45839;44.882;20.650;2023-02-01T11:30:41;10.65;;;6.78;;
59978;SDS011;45839;44.882;20.650;2023-02-01T11:33:12;11.27;;;6.57;;
59978;SDS011;45839;44.882;20.650;2023-02-01T11:35:39;10.75;;;6.95;;
59978;SDS011;45839;44.882;20.650;2023-02-01T11:38:39;11.98;;;6.90;;
59978;SDS011;45839;44.882;20.650;2023-02-01T11:43:56;14.27;;;7.18;;
59978;SDS011;45839;44.882;20.650;2023-02-01T11:46:24;12.75;;;7.03;;
59978;SDS011;45839;44.882;20.650;2023-02-01T11:48:53;12.15;;;7.13;;
59978;SDS011;45839;44.882;20.650;2023-02-01T11:54:03;13.05;;;7.30;;
59978;SDS011;45839;44.882;20.650;2023-02-01T11:59:07;14.60;;;7.60;;
59978;SDS011;45839;44.882;20.650;2023-02-01T12:06:47;12.02;;;5.72;;
59978;SDS011;45839;44.882;20.650;2023-02-01T12:20:04;6.30;;;2.95;;
59978;SDS011;45839;44.882;20.650;2023-02-01T12:28:11;5.47;;;2.22;;
59978;SDS011;45839;44.882;20.650;2023-02-01T12:33:27;4.50;;;2.10;;
59978;SDS011;45839;44.882;20.650;2023-02-01T12:43:39;4.53;;;1.90;;
59978;SDS011;45839;44.882;20.650;2023-02-01T12:46:22;4.72;;;1.95;;
59978;SDS011;45839;44.882;20.650;2023-02-01T12:51:19;5.18;;;2.22;;
59978;SDS011;45839;44.882;20.650;2023-02-01T12:56:27;7.55;;;4.00;;
59978;SDS011;45839;44.882;20.650;2023-02-01T12:58:55;7.93;;;3.58;;
59978;SDS011;45839;44.882;20.650;2023-02-01T13:01:30;9.65;;;4.43;;
59978;SDS011;45839;44.882;20.650;2023-02-01T13:06:31;12.52;;;4.90;;
59978;SDS011;45839;44.882;20.650;2023-02-01T13:11:26;10.80;;;4.68;;
59978;SDS011;45839;44.882;20.650;2023-02-01T13:16:27;8.20;;;4.38;;
59978;SDS011;45839;44.882;20.650;2023-02-01T13:18:57;12.25;;;5.20;;
59978;SDS011;45839;44.882;20.650;2023-02-01T13:21:27;8.95;;;4.68;;
59978;SDS011;45839;44.882;20.650;2023-02-01T13:23:55;9.00;;;4.63;;
59978;SDS011;45839;44.882;20.650;2023-02-01T13:26:21;10.00;;;4.60;;
59978;SDS011;45839;44.882;20.650;2023-02-01T13:28:48;9.77;;;4.78;;
59978;SDS011;45839;44.882;20.650;2023-02-01T13:33:50;8.95;;;5.18;;
59978;SDS011;45839;44.882;20.650;2023-02-01T13:49:43;11.25;;;4.80;;
59978;SDS011;45839;44.882;20.650;2023-02-01T13:52:21;6.65;;;3.33;;
59978;SDS011;45839;44.882;20.650;2023-02-01T13:54:49;8.93;;;4.18;;
59978;SDS011;45839;44.882;20.650;2023-02-01T13:57:38;7.07;;;3.78;;
59978;SDS011;45839;44.882;20.650;2023-02-01T14:13:29;8.15;;;3.72;;
59978;SDS011;45839;44.882;20.650;2023-02-01T14:24:02;8.18;;;3.65;;
59978;SDS011;45839;44.882;20.650;2023-02-01T14:34:15;8.40;;;3.83;;
59978;SDS011;45839;44.882;20.650;2023-02-01T14:36:53;8.82;;;4.10;;
59978;SDS011;45839;44.882;20.650;2023-02-01T14:40:05;7.63;;;3.30;;
59978;SDS011;45839;44.882;20.650;2023-02-01T14:42:25;8.98;;;3.80;;
59978;SDS011;45839;44.882;20.650;2023-02-01T14:44:53;9.32;;;4.40;;
59978;SDS011;45839;44.882;20.650;2023-02-01T14:49:54;10.60;;;3.97;;
59978;SDS011;45839;44.882;20.650;2023-02-01T14:52:22;8.05;;;4.40;;
59978;SDS011;45839;44.882;20.650;2023-02-01T14:54:51;9.45;;;4.50;;
59978;SDS011;45839;44.882;20.650;2023-02-01T14:57:19;9.57;;;4.57;;
59978;SDS011;45839;44.882;20.650;2023-02-01T14:59:46;8.98;;;4.57;;
59978;SDS011;45839;44.882;20.650;2023-02-01T15:02:21;10.35;;;4.53;;
59978;SDS011;45839;44.882;20.650;2023-02-01T15:04:53;14.73;;;6.13;;
59978;SDS011;45839;44.882;20.650;2023-02-01T15:07:19;14.65;;;5.63;;
59978;SDS011;45839;44.882;20.650;2023-02-01T15:09:47;15.55;;;9.48;;
59978;SDS011;45839;44.882;20.650;2023-02-01T15:12:17;16.45;;;8.95;;
59978;SDS011;45839;44.882;20.650;2023-02-01T15:14:47;26.45;;;14.57;;
59978;SDS011;45839;44.882;20.650;2023-02-01T15:17:23;20.85;;;12.23;;
59978;SDS011;45839;44.882;20.650;2023-02-01T15:19:59;16.45;;;9.20;;
59978;SDS011;45839;44.882;20.650;2023-02-01T15:22:26;18.02;;;9.20;;
59978;SDS011;45839;44.882;20.650;2023-02-01T15:24:56;17.17;;;9.23;;
59978;SDS011;45839;44.882;20.650;2023-02-01T15:27:22;16.45;;;9.13;;
59978;SDS011;45839;44.882;20.650;2023-02-01T15:29:48;18.40;;;10.05;;
59978;SDS011;45839;44.882;20.650;2023-02-01T15:32:37;19.65;;;11.93;;
59978;SDS011;45839;44.882;20.650;2023-02-01T15:35:03;19.95;;;12.82;;
59978;SDS011;45839;44.882;20.650;2023-02-01T15:37:29;22.35;;;13.25;;
59978;SDS011;45839;44.882;20.650;2023-02-01T15:42:32;18.73;;;11.10;;
59978;SDS011;45839;44.882;20.650;2023-02-01T15:44:58;19.98;;;10.55;;
59978;SDS011;45839;44.882;20.650;2023-02-01T15:47:25;19.70;;;9.70;;
59978;SDS011;45839;44.882;20.650;2023-02-01T15:49:52;18.73;;;10.63;;
59978;SDS011;45839;44.882;20.650;2023-02-01T15:52:39;19.77;;;10.68;;
59978;SDS011;45839;44.882;20.650;2023-02-01T15:55:20;17.58;;;10.00;;
59978;SDS011;45839;44.882;20.650;2023-02-01T15:57:47;20.70;;;12.50;;
59978;SDS011;45839;44.882;20.650;2023-02-01T16:02:54;24.63;;;13.73;;
59978;SDS011;45839;44.882;20.650;2023-02-01T16:05:40;22.13;;;13.25;;
59978;SDS011;45839;44.882;20.650;2023-02-01T16:10:41;24.10;;;13.93;;
59978;SDS011;45839;44.882;20.650;2023-02-01T16:13:07;21.67;;;11.70;;
59978;SDS011;45839;44.882;20.650;2023-02-01T16:15:33;22.80;;;12.00;;
59978;SDS011;45839;44.882;20.650;2023-02-01T16:17:59;21.67;;;12.85;;
59978;SDS011;45839;44.882;20.650;2023-02-01T16:20:25;24.70;;;12.90;;
59978;SDS011;45839;44.882;20.650;2023-02-01T16:22:51;23.58;;;12.57;;
59978;SDS011;45839;44.882;20.650;2023-02-01T16:25:18;22.38;;;13.48;;
59978;SDS011;45839;44.882;20.650;2023-02-01T16:27:44;27.60;;;14.90;;
59978;SDS011;45839;44.882;20.650;2023-02-01T16:30:10;22.40;;;14.20;;
59978;SDS011;45839;44.882;20.650;2023-02-01T16:32:37;30.42;;;17.13;;
59978;SDS011;45839;44.882;20.650;2023-02-01T16:35:04;34.58;;;20.20;;
59978;SDS011;45839;44.882;20.650;2023-02-01T16:37:30;35.72;;;20.15;;
59978;SDS011;45839;44.882;20.650;2023-02-01T16:39:58;43.85;;;24.48;;
59978;SDS011;45839;44.882;20.650;2023-02-01T16:42:24;40.55;;;24.13;;
59978;SDS011;45839;44.882;20.650;2023-02-01T16:44:50;38.22;;;23.05;;
59978;SDS011;45839;44.882;20.650;2023-02-01T16:47:17;41.72;;;24.58;;
59978;SDS011;45839;44.882;20.650;2023-02-01T16:49:44;42.05;;;27.73;;
59978;SDS011;45839;44.882;20.650;2023-02-01T16:52:28;50.88;;;29.75;;
59978;SDS011;45839;44.882;20.650;2023-02-01T16:54:54;60.63;;;34.65;;
59978;SDS011;45839;44.882;20.650;2023-02-01T16:57:20;54.00;;;33.95;;